sensor_id;sensor_type;location;lat;lon;timestamp;P1;durP1;ratioP1;P2;durP2;ratioP2
55254;SDS011;41118;44.634;11.182;2023-08-21T00:01:16;2.20;;;0.80;;
55254;SDS011;41118;44.634;11.182;2023-08-21T00:03:42;4.25;;;0.50;;
55254;SDS011;41118;44.634;11.182;2023-08-21T00:06:08;1.35;;;0.40;;
55254;SDS011;41118;44.634;11.182;2023-08-21T00:08:34;2.35;;;0.47;;
55254;SDS011;41118;44.634;11.182;2023-08-21T00:11:00;6.25;;;1.05;;
55254;SDS011;41118;44.634;11.182;2023-08-21T00:13:26;2.15;;;0.50;;
55254;SDS011;41118;44.634;11.182;2023-08-21T00:15:52;1.70;;;0.50;;
55254;SDS011;41118;44.634;11.182;2023-08-21T00:18:20;1.85;;;0.50;;
55254;SDS011;41118;44.634;11.182;2023-08-21T00:20:46;1.58;;;0.70;;
55254;SDS011;41118;44.634;11.182;2023-08-21T00:23:12;1.55;;;0.50;;
55254;SDS011;41118;44.634;11.182;2023-08-21T00:25:38;2.30;;;0.50;;
55254;SDS011;41118;44.634;11.182;2023-08-21T00:28:04;1.60;;;0.50;;
55254;SDS011;41118;44.634;11.182;2023-08-21T00:30:30;2.00;;;0.93;;
55254;SDS011;41118;44.634;11.182;2023-08-21T00:32:56;3.25;;;0.70;;
55254;SDS011;41118;44.634;11.182;2023-08-21T00:35:23;1.60;;;0.70;;
55254;SDS011;41118;44.634;11.182;2023-08-21T00:37:49;8.18;;;1.23;;
55254;SDS011;41118;44.634;11.182;2023-08-21T00:40:15;2.00;;;1.02;;
55254;SDS011;41118;44.634;11.182;2023-08-21T00:42:41;1.88;;;0.50;;
55254;SDS011;41118;44.634;11.182;2023-08-21T00:45:07;1.35;;;0.45;;
55254;SDS011;41118;44.634;11.182;2023-08-21T00:47:34;1.63;;;0.73;;
55254;SDS011;41118;44.634;11.182;2023-08-21T00:50:01;4.10;;;0.60;;
55254;SDS011;41118;44.634;11.182;2023-08-21T00:52:28;1.50;;;0.45;;
55254;SDS011;41118;44.634;11.182;2023-08-21T00:54:54;5.82;;;0.70;;
55254;SDS011;41118;44.634;11.182;2023-08-21T00:57:20;7.40;;;1.05;;
55254;SDS011;41118;44.634;11.182;2023-08-21T00:59:47;2.75;;;0.85;;
55254;SDS011;41118;44.634;11.182;2023-08-21T01:02:13;1.42;;;0.50;;
55254;SDS011;41118;44.634;11.182;2023-08-21T01:04:40;1.50;;;0.50;;
55254;SDS011;41118;44.634;11.182;2023-08-21T01:07:06;2.35;;;1.00;;
55254;SDS011;41118;44.634;11.182;2023-08-21T01:09:36;2.58;;;0.80;;
55254;SDS011;41118;44.634;11.182;2023-08-21T01:12:12;1.67;;;0.50;;
55254;SDS011;41118;44.634;11.182;2023-08-21T01:15:00;2.20;;;0.50;;
55254;SDS011;41118;44.634;11.182;2023-08-21T01:17:28;3.35;;;0.60;;
55254;SDS011;41118;44.634;11.182;2023-08-21T01:19:55;4.13;;;0.52;;
55254;SDS011;41118;44.634;11.182;2023-08-21T01:22:27;1.70;;;0.47;;
55254;SDS011;41118;44.634;11.182;2023-08-21T01:24:54;5.13;;;0.80;;
55254;SDS011;41118;44.634;11.182;2023-08-21T01:27:20;1.63;;;0.88;;
55254;SDS011;41118;44.634;11.182;2023-08-21T01:29:47;2.53;;;0.60;;
55254;SDS011;41118;44.634;11.182;2023-08-21T01:32:14;1.60;;;0.60;;
55254;SDS011;41118;44.634;11.182;2023-08-21T01:34:43;2.67;;;0.52;;
55254;SDS011;41118;44.634;11.182;2023-08-21T01:37:09;3.10;;;0.70;;
55254;SDS011;41118;44.634;11.182;2023-08-21T01:39:36;1.58;;;0.60;;
55254;SDS011;41118;44.634;11.182;2023-08-21T01:42:02;3.17;;;0.68;;
55254;SDS011;41118;44.634;11.182;2023-08-21T01:44:29;2.65;;;0.57;;
55254;SDS011;41118;44.634;11.182;2023-08-21T01:46:55;4.20;;;0.52;;
55254;SDS011;41118;44.634;11.182;2023-08-21T01:49:22;5.25;;;0.60;;
55254;SDS011;41118;44.634;11.182;2023-08-21T01:51:48;1.67;;;0.50;;
55254;SDS011;41118;44.634;11.182;2023-08-21T01:54:14;2.13;;;0.50;;
55254;SDS011;41118;44.634;11.182;2023-08-21T01:56:40;5.43;;;0.85;;
55254;SDS011;41118;44.634;11.182;2023-08-21T01:59:06;1.75;;;0.60;;
55254;SDS011;41118;44.634;11.182;2023-08-21T02:01:32;1.60;;;0.50;;
55254;SDS011;41118;44.634;11.182;2023-08-21T02:03:59;3.35;;;0.50;;
55254;SDS011;41118;44.634;11.182;2023-08-21T02:06:25;2.78;;;0.63;;
55254;SDS011;41118;44.634;11.182;2023-08-21T02:08:51;2.60;;;0.50;;
55254;SDS011;41118;44.634;11.182;2023-08-21T02:11:17;1.70;;;0.60;;
55254;SDS011;41118;44.634;11.182;2023-08-21T02:13:43;1.90;;;0.75;;
55254;SDS011;41118;44.634;11.182;2023-08-21T02:16:10;2.15;;;0.82;;
55254;SDS011;41118;44.634;11.182;2023-08-21T02:18:35;2.97;;;0.55;;
55254;SDS011;41118;44.634;11.182;2023-08-21T02:21:02;2.95;;;0.60;;
55254;SDS011;41118;44.634;11.182;2023-08-21T02:23:28;3.03;;;0.50;;
55254;SDS011;41118;44.634;11.182;2023-08-21T02:25:54;4.57;;;0.50;;
55254;SDS011;41118;44.634;11.182;2023-08-21T02:28:20;5.20;;;1.33;;
55254;SDS011;41118;44.634;11.182;2023-08-21T02:30:46;1.90;;;0.73;;
55254;SDS011;41118;44.634;11.182;2023-08-21T02:33:13;2.20;;;0.70;;
55254;SDS011;41118;44.634;11.182;2023-08-21T02:35:39;2.35;;;0.95;;
55254;SDS011;41118;44.634;11.182;2023-08-21T02:38:05;3.60;;;0.63;;
55254;SDS011;41118;44.634;11.182;2023-08-21T02:40:31;8.43;;;0.88;;
55254;SDS011;41118;44.634;11.182;2023-08-21T02:42:57;2.53;;;0.85;;
55254;SDS011;41118;44.634;11.182;2023-08-21T02:45:23;2.80;;;1.05;;
55254;SDS011;41118;44.634;11.182;2023-08-21T02:47:49;5.35;;;0.60;;
55254;SDS011;41118;44.634;11.182;2023-08-21T02:50:15;2.25;;;0.88;;
55254;SDS011;41118;44.634;11.182;2023-08-21T02:52:41;4.22;;;0.73;;
55254;SDS011;41118;44.634;11.182;2023-08-21T02:55:07;2.08;;;0.60;;
55254;SDS011;41118;44.634;11.182;2023-08-21T02:57:34;3.50;;;0.65;;
55254;SDS011;41118;44.634;11.182;2023-08-21T03:00:00;1.90;;;0.70;;
55254;SDS011;41118;44.634;11.182;2023-08-21T03:02:26;5.32;;;1.15;;
55254;SDS011;41118;44.634;11.182;2023-08-21T03:04:52;2.60;;;0.98;;
55254;SDS011;41118;44.634;11.182;2023-08-21T03:07:18;4.35;;;1.35;;
55254;SDS011;41118;44.634;11.182;2023-08-21T03:09:45;3.00;;;1.13;;
55254;SDS011;41118;44.634;11.182;2023-08-21T03:12:14;2.33;;;0.80;;
55254;SDS011;41118;44.634;11.182;2023-08-21T03:14:40;5.10;;;0.90;;
55254;SDS011;41118;44.634;11.182;2023-08-21T03:17:06;4.38;;;0.90;;
55254;SDS011;41118;44.634;11.182;2023-08-21T03:19:32;3.53;;;1.08;;
55254;SDS011;41118;44.634;11.182;2023-08-21T03:21:58;6.10;;;2.22;;
55254;SDS011;41118;44.634;11.182;2023-08-21T03:24:24;3.03;;;0.82;;
55254;SDS011;41118;44.634;11.182;2023-08-21T03:26:51;2.33;;;0.93;;
55254;SDS011;41118;44.634;11.182;2023-08-21T03:29:17;4.22;;;1.02;;
55254;SDS011;41118;44.634;11.182;2023-08-21T03:31:46;2.30;;;0.95;;
55254;SDS011;41118;44.634;11.182;2023-08-21T03:34:12;4.20;;;0.60;;
55254;SDS011;41118;44.634;11.182;2023-08-21T03:36:38;2.72;;;1.08;;
55254;SDS011;41118;44.634;11.182;2023-08-21T03:39:04;2.63;;;1.30;;
55254;SDS011;41118;44.634;11.182;2023-08-21T03:41:30;2.67;;;1.67;;
55254;SDS011;41118;44.634;11.182;2023-08-21T03:43:57;3.08;;;1.10;;
55254;SDS011;41118;44.634;11.182;2023-08-21T03:46:24;3.50;;;0.93;;
55254;SDS011;41118;44.634;11.182;2023-08-21T03:48:51;2.83;;;0.68;;
55254;SDS011;41118;44.634;11.182;2023-08-21T03:51:17;6.82;;;1.35;;
55254;SDS011;41118;44.634;11.182;2023-08-21T03:53:43;2.65;;;0.73;;
55254;SDS011;41118;44.634;11.182;2023-08-21T03:56:09;3.55;;;1.45;;
55254;SDS011;41118;44.634;11.182;2023-08-21T03:58:35;3.35;;;1.23;;
55254;SDS011;41118;44.634;11.182;2023-08-21T04:01:02;2.45;;;1.17;;
55254;SDS011;41118;44.634;11.182;2023-08-21T04:03:28;4.88;;;1.52;;
55254;SDS011;41118;44.634;11.182;2023-08-21T04:05:54;4.20;;;1.90;;
55254;SDS011;41118;44.634;11.182;2023-08-21T04:08:21;4.20;;;1.05;;
55254;SDS011;41118;44.634;11.182;2023-08-21T04:10:48;2.42;;;1.15;;
55254;SDS011;41118;44.634;11.182;2023-08-21T04:13:14;2.90;;;0.70;;
55254;SDS011;41118;44.634;11.182;2023-08-21T04:15:44;2.45;;;0.73;;
55254;SDS011;41118;44.634;11.182;2023-08-21T04:18:10;7.53;;;1.50;;
55254;SDS011;41118;44.634;11.182;2023-08-21T04:20:37;2.28;;;0.80;;
55254;SDS011;41118;44.634;11.182;2023-08-21T04:23:03;3.15;;;1.10;;
55254;SDS011;41118;44.634;11.182;2023-08-21T04:25:29;3.90;;;1.33;;
55254;SDS011;41118;44.634;11.182;2023-08-21T04:27:56;8.15;;;1.58;;
55254;SDS011;41118;44.634;11.182;2023-08-21T04:30:22;3.78;;;1.15;;
55254;SDS011;41118;44.634;11.182;2023-08-21T04:32:48;2.75;;;1.08;;
55254;SDS011;41118;44.634;11.182;2023-08-21T04:35:14;6.53;;;1.45;;
55254;SDS011;41118;44.634;11.182;2023-08-21T04:37:43;3.67;;;0.82;;
55254;SDS011;41118;44.634;11.182;2023-08-21T04:40:10;4.50;;;1.15;;
55254;SDS011;41118;44.634;11.182;2023-08-21T04:42:36;3.75;;;1.05;;
55254;SDS011;41118;44.634;11.182;2023-08-21T04:45:03;1.95;;;0.80;;
55254;SDS011;41118;44.634;11.182;2023-08-21T04:47:30;3.55;;;1.40;;
55254;SDS011;41118;44.634;11.182;2023-08-21T04:49:56;2.85;;;0.98;;
55254;SDS011;41118;44.634;11.182;2023-08-21T04:52:23;8.35;;;1.40;;
55254;SDS011;41118;44.634;11.182;2023-08-21T04:54:50;3.92;;;1.13;;
55254;SDS011;41118;44.634;11.182;2023-08-21T04:57:16;5.82;;;1.67;;
55254;SDS011;41118;44.634;11.182;2023-08-21T04:59:43;3.85;;;1.80;;
55254;SDS011;41118;44.634;11.182;2023-08-21T05:02:09;3.25;;;1.08;;
55254;SDS011;41118;44.634;11.182;2023-08-21T05:04:36;8.73;;;1.20;;
55254;SDS011;41118;44.634;11.182;2023-08-21T05:07:03;2.65;;;1.25;;
55254;SDS011;41118;44.634;11.182;2023-08-21T05:09:29;3.72;;;0.98;;
55254;SDS011;41118;44.634;11.182;2023-08-21T05:11:55;2.97;;;1.60;;
55254;SDS011;41118;44.634;11.182;2023-08-21T05:14:22;4.35;;;1.67;;
55254;SDS011;41118;44.634;11.182;2023-08-21T05:16:48;2.40;;;0.90;;
55254;SDS011;41118;44.634;11.182;2023-08-21T05:19:15;2.10;;;0.60;;
55254;SDS011;41118;44.634;11.182;2023-08-21T05:21:41;8.70;;;1.00;;
55254;SDS011;41118;44.634;11.182;2023-08-21T05:24:07;4.43;;;2.17;;
55254;SDS011;41118;44.634;11.182;2023-08-21T05:26:37;4.72;;;1.17;;
55254;SDS011;41118;44.634;11.182;2023-08-21T05:29:03;2.95;;;0.98;;
55254;SDS011;41118;44.634;11.182;2023-08-21T05:31:30;3.55;;;1.08;;
55254;SDS011;41118;44.634;11.182;2023-08-21T05:33:56;3.08;;;1.00;;
55254;SDS011;41118;44.634;11.182;2023-08-21T05:36:22;3.25;;;0.90;;
55254;SDS011;41118;44.634;11.182;2023-08-21T05:38:49;4.60;;;1.88;;
55254;SDS011;41118;44.634;11.182;2023-08-21T05:41:16;5.20;;;1.05;;
55254;SDS011;41118;44.634;11.182;2023-08-21T05:43:42;6.22;;;1.02;;
55254;SDS011;41118;44.634;11.182;2023-08-21T05:46:08;7.15;;;1.42;;
55254;SDS011;41118;44.634;11.182;2023-08-21T05:48:34;8.13;;;1.85;;
55254;SDS011;41118;44.634;11.182;2023-08-21T05:51:00;4.68;;;1.38;;
55254;SDS011;41118;44.634;11.182;2023-08-21T05:53:26;4.57;;;1.08;;
55254;SDS011;41118;44.634;11.182;2023-08-21T05:55:53;3.42;;;1.20;;
55254;SDS011;41118;44.634;11.182;2023-08-21T05:58:19;6.32;;;1.98;;
55254;SDS011;41118;44.634;11.182;2023-08-21T06:00:46;4.78;;;1.42;;
55254;SDS011;41118;44.634;11.182;2023-08-21T06:03:13;2.55;;;1.25;;
55254;SDS011;41118;44.634;11.182;2023-08-21T06:05:39;3.53;;;1.25;;
55254;SDS011;41118;44.634;11.182;2023-08-21T06:08:05;3.75;;;1.63;;
55254;SDS011;41118;44.634;11.182;2023-08-21T06:10:33;6.10;;;1.38;;
55254;SDS011;41118;44.634;11.182;2023-08-21T06:12:59;6.70;;;1.67;;
55254;SDS011;41118;44.634;11.182;2023-08-21T06:15:25;4.35;;;1.50;;
55254;SDS011;41118;44.634;11.182;2023-08-21T06:17:51;4.10;;;1.75;;
55254;SDS011;41118;44.634;11.182;2023-08-21T06:20:17;2.97;;;0.68;;
55254;SDS011;41118;44.634;11.182;2023-08-21T06:22:44;5.45;;;0.90;;
55254;SDS011;41118;44.634;11.182;2023-08-21T06:25:11;4.75;;;1.15;;
55254;SDS011;41118;44.634;11.182;2023-08-21T06:27:38;3.25;;;1.27;;
55254;SDS011;41118;44.634;11.182;2023-08-21T06:30:04;3.88;;;0.85;;
55254;SDS011;41118;44.634;11.182;2023-08-21T06:32:31;3.85;;;0.57;;
55254;SDS011;41118;44.634;11.182;2023-08-21T06:34:57;4.80;;;1.15;;
55254;SDS011;41118;44.634;11.182;2023-08-21T06:37:24;4.47;;;1.17;;
55254;SDS011;41118;44.634;11.182;2023-08-21T06:39:50;3.33;;;0.60;;
55254;SDS011;41118;44.634;11.182;2023-08-21T06:42:16;6.15;;;1.20;;
55254;SDS011;41118;44.634;11.182;2023-08-21T06:44:42;3.65;;;0.63;;
55254;SDS011;41118;44.634;11.182;2023-08-21T06:47:08;4.50;;;1.27;;
55254;SDS011;41118;44.634;11.182;2023-08-21T06:49:34;2.38;;;1.00;;
55254;SDS011;41118;44.634;11.182;2023-08-21T06:52:01;5.47;;;1.42;;
55254;SDS011;41118;44.634;11.182;2023-08-21T06:54:28;2.15;;;0.95;;
55254;SDS011;41118;44.634;11.182;2023-08-21T06:56:54;8.13;;;0.90;;
55254;SDS011;41118;44.634;11.182;2023-08-21T06:59:20;6.75;;;0.88;;
55254;SDS011;41118;44.634;11.182;2023-08-21T07:01:46;4.00;;;0.90;;
55254;SDS011;41118;44.634;11.182;2023-08-21T07:04:12;2.08;;;0.73;;
55254;SDS011;41118;44.634;11.182;2023-08-21T07:06:39;6.20;;;0.95;;
55254;SDS011;41118;44.634;11.182;2023-08-21T07:09:05;2.50;;;1.30;;
55254;SDS011;41118;44.634;11.182;2023-08-21T07:11:31;2.20;;;0.63;;
55254;SDS011;41118;44.634;11.182;2023-08-21T07:13:57;4.53;;;1.52;;
55254;SDS011;41118;44.634;11.182;2023-08-21T07:16:23;4.65;;;0.80;;
55254;SDS011;41118;44.634;11.182;2023-08-21T07:18:51;2.60;;;0.98;;
55254;SDS011;41118;44.634;11.182;2023-08-21T07:21:17;3.53;;;0.80;;
55254;SDS011;41118;44.634;11.182;2023-08-21T07:23:43;4.43;;;0.88;;
55254;SDS011;41118;44.634;11.182;2023-08-21T07:26:09;10.10;;;1.00;;
55254;SDS011;41118;44.634;11.182;2023-08-21T07:28:36;4.82;;;0.77;;
55254;SDS011;41118;44.634;11.182;2023-08-21T07:31:02;3.70;;;0.90;;
55254;SDS011;41118;44.634;11.182;2023-08-21T07:33:28;2.30;;;1.02;;
55254;SDS011;41118;44.634;11.182;2023-08-21T07:35:58;3.95;;;0.80;;
55254;SDS011;41118;44.634;11.182;2023-08-21T07:38:24;5.60;;;0.98;;
55254;SDS011;41118;44.634;11.182;2023-08-21T07:40:50;6.35;;;0.75;;
55254;SDS011;41118;44.634;11.182;2023-08-21T07:43:16;3.55;;;1.25;;
55254;SDS011;41118;44.634;11.182;2023-08-21T07:45:42;2.63;;;1.15;;
55254;SDS011;41118;44.634;11.182;2023-08-21T07:48:08;3.38;;;0.73;;
55254;SDS011;41118;44.634;11.182;2023-08-21T07:50:34;6.45;;;0.88;;
55254;SDS011;41118;44.634;11.182;2023-08-21T07:53:01;4.03;;;0.90;;
55254;SDS011;41118;44.634;11.182;2023-08-21T07:55:27;5.82;;;2.38;;
55254;SDS011;41118;44.634;11.182;2023-08-21T07:57:53;5.05;;;1.17;;
55254;SDS011;41118;44.634;11.182;2023-08-21T08:00:19;4.97;;;0.60;;
55254;SDS011;41118;44.634;11.182;2023-08-21T08:02:45;3.33;;;1.20;;
55254;SDS011;41118;44.634;11.182;2023-08-21T08:05:11;3.20;;;1.23;;
55254;SDS011;41118;44.634;11.182;2023-08-21T08:07:37;4.07;;;1.65;;
55254;SDS011;41118;44.634;11.182;2023-08-21T08:10:03;6.07;;;1.15;;
55254;SDS011;41118;44.634;11.182;2023-08-21T08:12:29;5.57;;;0.88;;
55254;SDS011;41118;44.634;11.182;2023-08-21T08:14:58;5.05;;;0.93;;
55254;SDS011;41118;44.634;11.182;2023-08-21T08:17:24;4.35;;;0.98;;
55254;SDS011;41118;44.634;11.182;2023-08-21T08:19:50;3.63;;;1.20;;
55254;SDS011;41118;44.634;11.182;2023-08-21T08:22:16;4.57;;;0.73;;
55254;SDS011;41118;44.634;11.182;2023-08-21T08:24:42;3.67;;;0.70;;
55254;SDS011;41118;44.634;11.182;2023-08-21T08:27:08;3.13;;;0.70;;
55254;SDS011;41118;44.634;11.182;2023-08-21T08:29:35;4.00;;;1.30;;
55254;SDS011;41118;44.634;11.182;2023-08-21T08:32:01;2.05;;;0.70;;
55254;SDS011;41118;44.634;11.182;2023-08-21T08:34:27;2.30;;;0.88;;
55254;SDS011;41118;44.634;11.182;2023-08-21T08:36:54;3.35;;;0.80;;
55254;SDS011;41118;44.634;11.182;2023-08-21T08:39:20;4.25;;;0.70;;
55254;SDS011;41118;44.634;11.182;2023-08-21T08:44:19;2.15;;;1.10;;
55254;SDS011;41118;44.634;11.182;2023-08-21T08:46:45;4.00;;;0.80;;
55254;SDS011;41118;44.634;11.182;2023-08-21T08:49:12;3.83;;;0.70;;
55254;SDS011;41118;44.634;11.182;2023-08-21T08:51:38;3.58;;;0.65;;
55254;SDS011;41118;44.634;11.182;2023-08-21T08:54:05;3.10;;;0.88;;
55254;SDS011;41118;44.634;11.182;2023-08-21T08:56:32;5.60;;;0.88;;
55254;SDS011;41118;44.634;11.182;2023-08-21T08:58:58;3.47;;;0.50;;
55254;SDS011;41118;44.634;11.182;2023-08-21T09:01:24;2.10;;;0.70;;
55254;SDS011;41118;44.634;11.182;2023-08-21T09:03:50;2.10;;;0.70;;
55254;SDS011;41118;44.634;11.182;2023-08-21T09:06:16;3.60;;;1.30;;
55254;SDS011;41118;44.634;11.182;2023-08-21T09:09:03;2.05;;;0.82;;
55254;SDS011;41118;44.634;11.182;2023-08-21T09:11:29;1.73;;;0.57;;
55254;SDS011;41118;44.634;11.182;2023-08-21T09:13:55;2.15;;;0.70;;
55254;SDS011;41118;44.634;11.182;2023-08-21T09:16:22;2.65;;;0.90;;
55254;SDS011;41118;44.634;11.182;2023-08-21T09:18:49;6.18;;;0.60;;
55254;SDS011;41118;44.634;11.182;2023-08-21T09:21:19;3.78;;;0.52;;
55254;SDS011;41118;44.634;11.182;2023-08-21T09:23:46;4.13;;;0.60;;
55254;SDS011;41118;44.634;11.182;2023-08-21T09:26:19;2.33;;;0.60;;
55254;SDS011;41118;44.634;11.182;2023-08-21T09:28:46;1.70;;;0.50;;
55254;SDS011;41118;44.634;11.182;2023-08-21T09:31:12;6.85;;;0.80;;
55254;SDS011;41118;44.634;11.182;2023-08-21T09:33:38;2.53;;;0.50;;
55254;SDS011;41118;44.634;11.182;2023-08-21T09:36:04;1.88;;;0.60;;
55254;SDS011;41118;44.634;11.182;2023-08-21T09:38:30;3.80;;;0.70;;
55254;SDS011;41118;44.634;11.182;2023-08-21T09:40:56;2.47;;;0.60;;
55254;SDS011;41118;44.634;11.182;2023-08-21T09:43:23;3.17;;;0.60;;
55254;SDS011;41118;44.634;11.182;2023-08-21T09:45:51;1.80;;;0.50;;
55254;SDS011;41118;44.634;11.182;2023-08-21T09:48:24;2.55;;;0.60;;
55254;SDS011;41118;44.634;11.182;2023-08-21T09:50:52;3.05;;;0.90;;
55254;SDS011;41118;44.634;11.182;2023-08-21T09:53:18;2.55;;;0.85;;
55254;SDS011;41118;44.634;11.182;2023-08-21T09:55:45;2.90;;;0.80;;
55254;SDS011;41118;44.634;11.182;2023-08-21T09:58:11;4.70;;;0.90;;
55254;SDS011;41118;44.634;11.182;2023-08-21T10:00:39;2.25;;;0.50;;
55254;SDS011;41118;44.634;11.182;2023-08-21T10:03:08;2.00;;;0.50;;
55254;SDS011;41118;44.634;11.182;2023-08-21T10:05:36;1.85;;;0.60;;
55254;SDS011;41118;44.634;11.182;2023-08-21T10:08:03;2.78;;;0.50;;
55254;SDS011;41118;44.634;11.182;2023-08-21T10:10:33;1.95;;;0.60;;
55254;SDS011;41118;44.634;11.182;2023-08-21T10:13:00;1.63;;;0.60;;
55254;SDS011;41118;44.634;11.182;2023-08-21T10:15:30;1.65;;;0.60;;
55254;SDS011;41118;44.634;11.182;2023-08-21T10:17:57;3.95;;;0.57;;
55254;SDS011;41118;44.634;11.182;2023-08-21T10:20:25;5.13;;;0.43;;
55254;SDS011;41118;44.634;11.182;2023-08-21T10:22:54;3.67;;;0.50;;
55254;SDS011;41118;44.634;11.182;2023-08-21T10:25:23;3.80;;;0.60;;
55254;SDS011;41118;44.634;11.182;2023-08-21T10:27:56;2.90;;;0.43;;
55254;SDS011;41118;44.634;11.182;2023-08-21T10:30:24;2.58;;;0.40;;
55254;SDS011;41118;44.634;11.182;2023-08-21T10:32:51;1.40;;;0.43;;
55254;SDS011;41118;44.634;11.182;2023-08-21T10:35:18;3.33;;;0.60;;
55254;SDS011;41118;44.634;11.182;2023-08-21T10:40:29;2.75;;;0.40;;
55254;SDS011;41118;44.634;11.182;2023-08-21T10:42:56;1.38;;;0.50;;
55254;SDS011;41118;44.634;11.182;2023-08-21T10:45:22;4.13;;;0.60;;
55254;SDS011;41118;44.634;11.182;2023-08-21T10:47:48;3.15;;;0.70;;
55254;SDS011;41118;44.634;11.182;2023-08-21T10:50:15;4.78;;;0.73;;
55254;SDS011;41118;44.634;11.182;2023-08-21T10:52:43;1.92;;;0.40;;
55254;SDS011;41118;44.634;11.182;2023-08-21T10:55:12;1.67;;;0.35;;
55254;SDS011;41118;44.634;11.182;2023-08-21T10:57:39;1.10;;;0.30;;
55254;SDS011;41118;44.634;11.182;2023-08-21T11:00:10;3.08;;;0.50;;
55254;SDS011;41118;44.634;11.182;2023-08-21T11:02:37;1.45;;;0.40;;
55254;SDS011;41118;44.634;11.182;2023-08-21T11:05:04;1.20;;;0.30;;
55254;SDS011;41118;44.634;11.182;2023-08-21T11:07:31;1.20;;;0.40;;
55254;SDS011;41118;44.634;11.182;2023-08-21T11:10:02;2.55;;;0.40;;
55254;SDS011;41118;44.634;11.182;2023-08-21T11:12:28;1.83;;;0.38;;
55254;SDS011;41118;44.634;11.182;2023-08-21T11:14:55;1.35;;;0.32;;
55254;SDS011;41118;44.634;11.182;2023-08-21T11:17:21;1.45;;;0.40;;
55254;SDS011;41118;44.634;11.182;2023-08-21T11:19:48;2.50;;;0.40;;
55254;SDS011;41118;44.634;11.182;2023-08-21T11:22:15;3.45;;;0.40;;
55254;SDS011;41118;44.634;11.182;2023-08-21T11:24:42;3.17;;;0.40;;
55254;SDS011;41118;44.634;11.182;2023-08-21T11:27:10;2.63;;;0.55;;
55254;SDS011;41118;44.634;11.182;2023-08-21T11:29:38;1.40;;;0.40;;
55254;SDS011;41118;44.634;11.182;2023-08-21T11:32:07;1.10;;;0.40;;
55254;SDS011;41118;44.634;11.182;2023-08-21T11:34:33;2.22;;;0.40;;
55254;SDS011;41118;44.634;11.182;2023-08-21T11:36:59;1.95;;;0.40;;
55254;SDS011;41118;44.634;11.182;2023-08-21T11:39:25;1.83;;;0.50;;
55254;SDS011;41118;44.634;11.182;2023-08-21T11:41:58;1.55;;;0.35;;
55254;SDS011;41118;44.634;11.182;2023-08-21T11:44:24;1.63;;;0.57;;
55254;SDS011;41118;44.634;11.182;2023-08-21T11:46:51;2.03;;;0.50;;
55254;SDS011;41118;44.634;11.182;2023-08-21T11:49:20;2.65;;;0.40;;
55254;SDS011;41118;44.634;11.182;2023-08-21T11:51:48;1.02;;;0.30;;
55254;SDS011;41118;44.634;11.182;2023-08-21T11:54:14;3.10;;;0.35;;
55254;SDS011;41118;44.634;11.182;2023-08-21T11:56:43;2.53;;;0.40;;
55254;SDS011;41118;44.634;11.182;2023-08-21T11:59:09;2.05;;;0.50;;
55254;SDS011;41118;44.634;11.182;2023-08-21T12:01:37;1.33;;;0.40;;
55254;SDS011;41118;44.634;11.182;2023-08-21T12:04:13;1.48;;;0.40;;
55254;SDS011;41118;44.634;11.182;2023-08-21T12:06:43;1.42;;;0.40;;
55254;SDS011;41118;44.634;11.182;2023-08-21T12:09:09;1.15;;;0.40;;
55254;SDS011;41118;44.634;11.182;2023-08-21T12:11:35;1.50;;;0.40;;
55254;SDS011;41118;44.634;11.182;2023-08-21T12:14:03;1.13;;;0.40;;
55254;SDS011;41118;44.634;11.182;2023-08-21T12:16:29;6.30;;;1.10;;
55254;SDS011;41118;44.634;11.182;2023-08-21T12:18:55;0.95;;;0.32;;
55254;SDS011;41118;44.634;11.182;2023-08-21T12:21:22;3.20;;;0.38;;
55254;SDS011;41118;44.634;11.182;2023-08-21T12:23:49;1.63;;;0.30;;
55254;SDS011;41118;44.634;11.182;2023-08-21T12:26:15;1.30;;;0.40;;
55254;SDS011;41118;44.634;11.182;2023-08-21T12:28:46;1.20;;;0.40;;
55254;SDS011;41118;44.634;11.182;2023-08-21T12:31:12;4.07;;;0.30;;
55254;SDS011;41118;44.634;11.182;2023-08-21T12:33:38;1.00;;;0.30;;
55254;SDS011;41118;44.634;11.182;2023-08-21T12:36:04;3.05;;;0.40;;
55254;SDS011;41118;44.634;11.182;2023-08-21T12:38:30;3.42;;;0.40;;
55254;SDS011;41118;44.634;11.182;2023-08-21T12:40:57;2.70;;;0.65;;
55254;SDS011;41118;44.634;11.182;2023-08-21T12:43:23;2.50;;;0.55;;
55254;SDS011;41118;44.634;11.182;2023-08-21T12:45:50;3.05;;;0.40;;
55254;SDS011;41118;44.634;11.182;2023-08-21T12:48:16;0.98;;;0.38;;
55254;SDS011;41118;44.634;11.182;2023-08-21T12:50:42;2.35;;;0.30;;
55254;SDS011;41118;44.634;11.182;2023-08-21T12:53:08;0.82;;;0.30;;
55254;SDS011;41118;44.634;11.182;2023-08-21T12:55:35;4.57;;;0.30;;
55254;SDS011;41118;44.634;11.182;2023-08-21T12:58:01;1.20;;;0.30;;
55254;SDS011;41118;44.634;11.182;2023-08-21T13:00:27;1.95;;;0.60;;
55254;SDS011;41118;44.634;11.182;2023-08-21T13:02:53;1.20;;;0.45;;
55254;SDS011;41118;44.634;11.182;2023-08-21T13:05:19;1.73;;;0.45;;
55254;SDS011;41118;44.634;11.182;2023-08-21T13:07:45;1.80;;;0.40;;
55254;SDS011;41118;44.634;11.182;2023-08-21T13:10:12;3.13;;;0.50;;
55254;SDS011;41118;44.634;11.182;2023-08-21T13:12:39;2.67;;;0.55;;
55254;SDS011;41118;44.634;11.182;2023-08-21T13:15:05;1.00;;;0.30;;
55254;SDS011;41118;44.634;11.182;2023-08-21T13:17:33;2.47;;;0.40;;
55254;SDS011;41118;44.634;11.182;2023-08-21T13:19:59;1.20;;;0.40;;
55254;SDS011;41118;44.634;11.182;2023-08-21T13:22:25;2.85;;;0.40;;
55254;SDS011;41118;44.634;11.182;2023-08-21T13:24:51;1.90;;;0.40;;
55254;SDS011;41118;44.634;11.182;2023-08-21T13:27:17;4.25;;;0.43;;
55254;SDS011;41118;44.634;11.182;2023-08-21T13:29:43;1.35;;;0.50;;
55254;SDS011;41118;44.634;11.182;2023-08-21T13:32:09;1.42;;;0.40;;
55254;SDS011;41118;44.634;11.182;2023-08-21T13:34:35;1.58;;;0.30;;
55254;SDS011;41118;44.634;11.182;2023-08-21T13:37:02;2.03;;;0.40;;
55254;SDS011;41118;44.634;11.182;2023-08-21T13:39:29;3.15;;;0.30;;
55254;SDS011;41118;44.634;11.182;2023-08-21T13:41:55;1.40;;;0.30;;
55254;SDS011;41118;44.634;11.182;2023-08-21T13:44:22;1.25;;;0.40;;
55254;SDS011;41118;44.634;11.182;2023-08-21T13:46:48;1.67;;;0.30;;
55254;SDS011;41118;44.634;11.182;2023-08-21T13:49:14;3.10;;;0.40;;
55254;SDS011;41118;44.634;11.182;2023-08-21T13:51:40;2.40;;;0.40;;
55254;SDS011;41118;44.634;11.182;2023-08-21T13:54:07;1.58;;;0.30;;
55254;SDS011;41118;44.634;11.182;2023-08-21T13:56:33;1.70;;;0.30;;
55254;SDS011;41118;44.634;11.182;2023-08-21T13:58:59;3.90;;;0.50;;
55254;SDS011;41118;44.634;11.182;2023-08-21T14:01:25;1.98;;;0.30;;
55254;SDS011;41118;44.634;11.182;2023-08-21T14:03:51;1.42;;;0.43;;
55254;SDS011;41118;44.634;11.182;2023-08-21T14:06:17;1.60;;;0.40;;
55254;SDS011;41118;44.634;11.182;2023-08-21T14:08:43;2.97;;;0.40;;
55254;SDS011;41118;44.634;11.182;2023-08-21T14:11:09;1.30;;;0.40;;
55254;SDS011;41118;44.634;11.182;2023-08-21T14:13:35;1.20;;;0.40;;
55254;SDS011;41118;44.634;11.182;2023-08-21T14:16:01;2.50;;;0.50;;
55254;SDS011;41118;44.634;11.182;2023-08-21T14:18:28;1.23;;;0.38;;
55254;SDS011;41118;44.634;11.182;2023-08-21T14:20:54;1.40;;;0.30;;
55254;SDS011;41118;44.634;11.182;2023-08-21T14:23:20;1.95;;;0.65;;
55254;SDS011;41118;44.634;11.182;2023-08-21T14:25:46;9.55;;;0.43;;
55254;SDS011;41118;44.634;11.182;2023-08-21T14:28:12;2.53;;;0.40;;
55254;SDS011;41118;44.634;11.182;2023-08-21T14:30:38;1.77;;;0.40;;
55254;SDS011;41118;44.634;11.182;2023-08-21T14:33:04;2.83;;;0.40;;
55254;SDS011;41118;44.634;11.182;2023-08-21T14:35:30;1.33;;;0.32;;